• Join FlightAware (Why Join?)
  • Login
  • US Flag 
09:09PM EDT


 

Airport Tracker/Info


-or-


 

Live Flight TrackerFlight Track Log ✈ N31PS ✈ 05-May-2013 ✈ KANP - KMMU

Flight Track Log - Related Links

Times and Time Zones

All times are in EDT time to prevent confusion due to time zone crossing. See the N31PS flight status page for this flight to view local times or setup timezone preferences in your user account.

Time Position Orientation Groundspeed Altitude Reporting Facility
EDT Latitude Longitude Course Direction KTS MPH feet Rate Location/Type
07:56AM 39.0333 -76.3333 38° Northeast 132 152 1,500  Level Potomac TRACON
07:57AM 39.0667 -76.3000 38° Northeast 132 152 1,600  Climbing Potomac TRACON
07:58AM 39.0833 -76.2667 57° Northeast 128 147 1,600 60 Level Potomac TRACON
07:59AM 39.1167 -76.2500 21° North 130 150 1,800  Climbing Potomac TRACON
08:00AM 39.1500 -76.2167 38° Northeast 132 152 1,600 -60 Descending Potomac TRACON
08:01AM 39.1833 -76.2000 21° North 136 157 1,700  Climbing Potomac TRACON
08:02AM 39.2167 -76.1667 38° Northeast 135 155 1,600 -120 Descending Potomac TRACON
08:03AM 39.2333 -76.1500 38° Northeast 130 150 1,500  Descending Potomac TRACON
08:05AM 39.3167 -76.0833 32° Northeast 137 158 1,700  Climbing Philadelphia TRACON
08:06AM 39.3333 -76.0667 38° Northeast 133 153 1,600  Descending Philadelphia TRACON
08:07AM 39.3667 -76.0333 38° Northeast 131 151 1,700  Climbing Philadelphia TRACON
08:08AM 39.4000 -76.0167 21° North 132 152 1,700 -60 Level Philadelphia TRACON
08:09AM 39.4333 -76.0000 21° North 131 151 1,600 -60 Descending Philadelphia TRACON
08:10AM 39.4667 -75.9833 21° North 141 162 1,600  Level Philadelphia TRACON
08:12AM 39.4985 -75.9453 43° Northeast  Level FlightAware Approximate
08:19AM 39.6837 -75.7229 43° Northeast  Level FlightAware Approximate
08:20AM 39.7101 -75.6910 43° Northeast  Level FlightAware Approximate
08:21AM 39.7365 -75.6591 43° Northeast  Level FlightAware Approximate
08:22AM 39.7629 -75.6272 43° Northeast  Level FlightAware Approximate
08:23AM 39.7893 -75.5952 43° Northeast  Level FlightAware Approximate
08:24AM 39.8157 -75.5632 43° Northeast  Level FlightAware Approximate
08:25AM 39.8420 -75.5312 43° Northeast  Level FlightAware Approximate
08:26AM 39.8684 -75.4992 43° Northeast  Level FlightAware Approximate
08:27AM 39.8948 -75.4672 43° Northeast  Level FlightAware Approximate
08:28AM 39.9211 -75.4351 43° Northeast  Level FlightAware Approximate
08:29AM 39.9475 -75.4030 43° Northeast  Level FlightAware Approximate
08:30AM 39.9738 -75.3709 43° Northeast  Level FlightAware Approximate
08:31AM 40.0001 -75.3387 43° Northeast  Level FlightAware Approximate
08:32AM 40.0264 -75.3065 43° Northeast  Level FlightAware Approximate
08:33AM 40.0527 -75.2744 43° Northeast  Level FlightAware Approximate
08:34AM 40.0790 -75.2421 43° Northeast  Level FlightAware Approximate
08:35AM 40.1053 -75.2099 43° Northeast  Level FlightAware Approximate
08:36AM 40.1316 -75.1776 43° Northeast  Level FlightAware Approximate
08:37AM 40.1579 -75.1453 43° Northeast  Level FlightAware Approximate
08:38AM 40.1842 -75.1130 43° Northeast  Level FlightAware Approximate
08:39AM 40.2104 -75.0806 43° Northeast  Level FlightAware Approximate
08:40AM 40.2366 -75.0483 43° Northeast  Level FlightAware Approximate
08:41AM 40.2629 -75.0159 43° Northeast  Level FlightAware Approximate
08:42AM 40.2891 -74.9835 43° Northeast  Level FlightAware Approximate
08:43AM 40.3153 -74.9510 43° Northeast  Level FlightAware Approximate
08:44AM 40.3415 -74.9185 43° Northeast  Level FlightAware Approximate
08:45AM 40.3677 -74.8860 43° Northeast  Level FlightAware Approximate
08:46AM 40.3944 -74.8542 41° Northeast  Level FlightAware Approximate
08:47AM 40.4217 -74.8233 41° Northeast  Level FlightAware Approximate
08:48AM 40.4491 -74.7924 41° Northeast  Level FlightAware Approximate
08:49AM 40.4764 -74.7615 41° Northeast  Level FlightAware Approximate
08:50AM 40.5037 -74.7306 41° Northeast  Level FlightAware Approximate
08:51AM 40.5310 -74.6996 41° Northeast  Level FlightAware Approximate
08:52AM 40.5583 -74.6686 41° Northeast  Level FlightAware Approximate
08:53AM 40.5856 -74.6376 41° Northeast  Level FlightAware Approximate
08:54AM 40.6129 -74.6066 41° Northeast  Level FlightAware Approximate
08:55AM 40.6401 -74.5755 41° Northeast  Level FlightAware Approximate
08:56AM 40.6674 -74.5444 41° Northeast  Level FlightAware Approximate
08:57AM 40.6946 -74.5133 41° Northeast  Level FlightAware Approximate
08:58AM 40.7219 -74.4822 41° Northeast  Level FlightAware Approximate
08:59AM 40.7491 -74.4510 41° Northeast  Level FlightAware Approximate
09:00AM 40.7731 -74.4154 49° Northeast  Level FlightAware Approximate
09:01AM 40.7833 -74.4000 49° Northeast  Level FlightAware Approximate
09:02AM 40.7993 -74.4149 49° Northeast  Level Estimated
09:03AM 40.7993 -74.4149 49° Northeast  Level Estimated
09:04AM 40.7993 -74.4149 49° Northeast  Level Estimated
09:05AM 40.7993 -74.4149 49° Northeast  Level Estimated
09:06AM 40.7993 -74.4149 49° Northeast  Level Estimated
09:07AM 40.7993 -74.4149 49° Northeast  Level Estimated
09:08AM 40.7993 -74.4149 49° Northeast  Level Estimated
09:09AM 40.7993 -74.4149 49° Northeast  Level Estimated
09:10AM 40.7993 -74.4149 49° Northeast  Level Estimated
09:11AM 40.7993 -74.4149 49° Northeast  Level Estimated
09:12AM 40.7993 -74.4149 49° Northeast  Level Estimated
09:13AM 40.7993 -74.4149 49° Northeast  Level Estimated
09:14AM 40.7993 -74.4149 49° Northeast  Level Estimated
09:15AM 40.7993 -74.4149 49° Northeast  Level Estimated
09:16AM 40.7993 -74.4149 49° Northeast  Level Estimated